Time;durP1;ratioP1;P1;durP2;ratioP2;P2;SDS_P1;SDS_P2;PMS_P1;PMS_P2;Temp;Humidity;BMP_temperature;BMP_pressure;BME280_temperature;BME280_humidity;BME280_pressure;Samples;Min_cycle;Max_cycle;Signal;HPM_P1;HPM_P2
2022/10/03 00:01:42;;;;;;;7.80;4.00;;;;;;;9.10;97.73;98146.71;104310;1290;23938;-75
2022/10/03 00:04:48;;;;;;;7.50;4.00;;;;;;;9.11;97.77;98145.81;104161;1290;138721;-75
2022/10/03 00:07:58;;;;;;;7.60;4.40;;;;;;;9.13;97.67;98149.21;104264;1291;25538;-75
2022/10/03 00:10:50;;;;;;;7.50;4.30;;;;;;;9.15;97.85;98146.04;104125;1290;138670;-75
2022/10/03 00:13:17;;;;;;;11.80;5.10;;;;;;;9.17;97.71;98150.80;104310;1292;22577;-75
2022/10/03 00:15:53;;;;;;;10.10;5.30;;;;;;;9.17;97.76;98149.39;104265;1290;25283;-75
2022/10/03 00:18:35;;;;;;;9.50;5.70;;;;;;;9.18;97.82;98149.30;104289;1285;138573;-75
2022/10/03 00:21:16;;;;;;;10.70;5.70;;;;;;;9.20;97.92;98154.54;105108;1283;22545;-75
2022/10/03 00:24:02;;;;;;;8.40;5.00;;;;;;;9.19;98.09;98155.84;104978;1283;138339;-75
2022/10/03 00:26:50;;;;;;;9.00;5.20;;;;;;;9.18;98.09;98152.77;105115;1283;25361;-75
2022/10/03 00:29:38;;;;;;;12.80;6.30;;;;;;;9.17;98.28;98145.27;105125;1280;138600;-75
2022/10/03 00:32:30;;;;;;;11.70;6.30;;;;;;;9.15;98.31;98144.14;105809;1275;25360;-74
2022/10/03 00:35:38;;;;;;;10.50;6.10;;;;;;;9.13;98.31;98143.83;105640;1278;137959;-74
2022/10/03 00:38:11;;;;;;;10.30;5.60;;;;;;;9.10;98.21;98143.02;105795;1278;25362;-74
2022/10/03 00:40:54;;;;;;;10.50;5.30;;;;;;;9.07;98.03;98140.73;105694;1278;138110;-74
2022/10/03 00:43:43;;;;;;;8.90;5.60;;;;;;;9.04;97.84;98136.34;105770;1277;25238;-74
2022/10/03 00:46:37;;;;;;;8.60;5.40;;;;;;;9.01;97.75;98137.31;105363;1278;138674;-74
2022/10/03 00:49:19;;;;;;;11.60;5.00;;;;;;;8.98;97.59;98133.83;105590;1278;22669;-74
2022/10/03 00:51:49;;;;;;;10.00;5.60;;;;;;;8.96;97.66;98129.95;105454;1278;24420;-74
2022/10/03 00:54:53;;;;;;;8.80;4.50;;;;;;;8.95;97.69;98126.38;105828;1277;138338;-74
2022/10/03 00:57:23;;;;;;;5.90;4.30;;;;;;;8.92;97.68;98132.37;105202;1284;22563;-74
2022/10/03 01:00:13;;;;;;;10.70;4.70;;;;;;;8.91;97.65;98126.36;105299;1280;137955;-74
2022/10/03 01:02:50;;;;;;;7.90;4.60;;;;;;;8.90;97.54;98134.13;105400;1281;25500;-74
2022/10/03 01:06:01;;;;;;;10.20;4.70;;;;;;;8.90;97.77;98132.76;105283;1281;137860;-74
2022/10/03 01:08:42;;;;;;;8.40;4.90;;;;;;;8.91;97.83;98132.94;105309;1281;23929;-74
2022/10/03 01:11:27;;;;;;;12.50;6.60;;;;;;;8.91;97.85;98127.29;105224;1281;138009;-73
2022/10/03 01:14:30;;;;;;;10.90;6.60;;;;;;;8.91;97.94;98122.56;105362;1281;22639;-73
2022/10/03 01:17:05;;;;;;;11.80;7.00;;;;;;;8.90;98.10;98118.84;105331;1281;139957;-73
2022/10/03 01:19:54;;;;;;;14.10;8.60;;;;;;;8.88;98.00;98117.80;105476;1281;24276;-73
2022/10/03 01:22:39;;;;;;;;;;;;;;;8.85;97.98;98111.10;105230;1281;138061;-73
2022/10/03 01:25:29;;;;;;;13.00;8.50;;;;;;;8.80;98.02;98113.71;105269;1281;22534;-73
2022/10/03 01:31:27;;;;;;;17.70;9.80;;;;;;;8.77;98.63;98118.42;105316;1281;22559;-74
2022/10/03 01:34:06;;;;;;;15.30;9.90;;;;;;;8.75;98.56;98113.30;105610;1278;22690;-74
2022/10/03 01:36:48;;;;;;;14.80;8.90;;;;;;;8.74;98.79;98119.80;105814;1274;31610;-74
2022/10/03 01:39:41;;;;;;;16.10;9.80;;;;;;;8.74;98.76;98117.41;105932;1274;22525;-74
2022/10/03 01:42:34;;;;;;;13.10;8.20;;;;;;;8.74;98.94;98114.58;105807;1274;137995;-74
2022/10/03 01:45:12;;;;;;;20.80;9.30;;;;;;;8.75;99.33;98114.48;105931;1274;22617;-74
2022/10/03 01:47:50;;;;;;;13.60;9.50;;;;;;;8.75;99.52;98110.41;105664;1278;138237;-74
2022/10/03 01:50:35;;;;;;;16.00;9.30;;;;;;;8.77;99.26;98098.44;105871;1275;22630;-74
2022/10/03 01:53:31;;;;;;;16.30;9.40;;;;;;;8.77;99.48;98101.92;105736;1278;138277;-74
2022/10/03 01:56:11;;;;;;;17.30;9.40;;;;;;;8.78;99.69;98108.62;105189;1284;24286;-75
2022/10/03 01:58:51;;;;;;;14.90;8.90;;;;;;;8.79;99.53;98108.59;105132;1281;139080;-74
2022/10/03 02:01:26;;;;;;;11.60;7.70;;;;;;;8.81;99.82;98115.75;105219;1281;22534;-73
2022/10/03 02:04:05;;;;;;;13.40;9.00;;;;;;;8.82;99.91;98114.95;105327;1281;25219;-75
2022/10/03 02:06:43;;;;;;;13.90;9.00;;;;;;;8.83;99.92;98111.67;105265;1281;22821;-74
2022/10/03 02:09:36;;;;;;;13.30;8.40;;;;;;;8.86;99.94;98114.54;105282;1281;22639;-74
2022/10/03 02:12:22;;;;;;;19.00;10.30;;;;;;;8.87;99.95;98121.89;105239;1281;138057;-74
2022/10/03 02:15:00;;;;;;;14.70;9.90;;;;;;;8.88;99.96;98120.84;105256;1281;24269;-74
2022/10/03 02:17:47;;;;;;;12.60;9.90;;;;;;;8.89;99.99;98118.14;105115;1284;138034;-74
2022/10/03 02:20:44;;;;;;;18.00;11.20;;;;;;;8.92;99.90;98115.79;105222;1284;25381;-74
2022/10/03 02:23:38;;;;;;;20.50;12.40;;;;;;;8.93;99.95;98109.78;105140;1284;138333;-74
2022/10/03 02:26:20;;;;;;;18.80;12.60;;;;;;;8.95;99.93;98114.05;105171;1281;24311;-74
2022/10/03 02:29:05;;;;;;;18.60;12.40;;;;;;;8.96;99.81;98121.08;105222;1281;138710;-74
2022/10/03 02:32:26;;;;;;;18.90;13.40;;;;;;;8.97;99.86;98123.86;105277;1281;24295;-73
2022/10/03 02:35:14;;;;;;;22.80;12.90;;;;;;;8.97;99.73;98123.44;104857;1283;138672;-73
2022/10/03 02:37:50;;;;;;;16.40;11.30;;;;;;;8.98;99.83;98124.43;104983;1283;22597;-73
2022/10/03 02:40:36;;;;;;;19.70;12.30;;;;;;;8.98;99.63;98119.66;104939;1284;142586;-73
2022/10/03 02:43:42;;;;;;;13.30;10.40;;;;;;;8.99;99.56;98119.45;104981;1284;22576;-73
2022/10/03 02:46:28;;;;;;;18.10;11.70;;;;;;;8.98;99.34;98115.79;104853;1283;139158;-73
2022/10/03 02:49:21;;;;;;;15.40;10.60;;;;;;;8.97;99.36;98123.10;104973;1283;25468;-74
2022/10/03 02:52:31;;;;;;;16.80;9.50;;;;;;;8.97;99.16;98127.62;104977;1283;25390;-73
2022/10/03 02:55:13;;;;;;;15.60;10.00;;;;;;;8.98;99.16;98124.05;104989;1284;24127;-73
2022/10/03 02:58:02;;;;;;;18.30;10.10;;;;;;;8.98;99.23;98122.60;105134;1284;25340;-73
2022/10/03 03:01:12;;;;;;;17.40;10.10;;;;;;;8.99;99.13;98120.70;105089;1283;22574;-73
2022/10/03 03:04:06;;;;;;;17.00;10.80;;;;;;;8.98;99.02;98122.75;105074;1283;24276;-74
2022/10/03 03:07:04;;;;;;;18.30;9.70;;;;;;;8.98;99.09;98121.16;105094;1283;25414;-73
2022/10/03 03:09:50;;;;;;;17.20;10.30;;;;;;;8.98;99.13;98125.14;105114;1283;22563;-73
2022/10/03 03:12:43;;;;;;;18.70;8.70;;;;;;;8.98;99.21;98118.45;105761;1277;138651;-73
2022/10/03 03:15:53;;;;;;;16.50;9.90;;;;;;;8.98;99.22;98118.15;105812;1277;22546;-73
2022/10/03 03:19:13;;;;;;;14.80;9.10;;;;;;;8.98;99.22;98115.86;105719;1277;138046;-73
2022/10/03 03:21:49;;;;;;;15.50;8.80;;;;;;;8.99;99.43;98111.63;104858;1285;22563;-74
2022/10/03 03:24:31;;;;;;;13.60;9.20;;;;;;;9.00;99.48;98111.64;104748;1286;138353;-73
2022/10/03 03:27:16;;;;;;;20.80;11.30;;;;;;;9.00;99.35;98108.17;104876;1286;22640;-74
2022/10/03 03:30:07;;;;;;;21.10;11.00;;;;;;;9.01;99.21;98106.36;104842;1284;139267;-73
2022/10/03 03:33:05;;;;;;;19.10;10.60;;;;;;;9.02;99.16;98106.69;104899;1284;22561;-73
2022/10/03 03:35:53;;;;;;;19.90;10.60;;;;;;;9.02;99.19;98112.23;104801;1283;138602;-73
2022/10/03 03:38:41;;;;;;;17.60;10.70;;;;;;;9.03;99.38;98110.19;104922;1284;24244;-74
2022/10/03 03:41:29;;;;;;;20.10;11.20;;;;;;;9.03;99.31;98108.02;104879;1284;138618;-74
2022/10/03 03:44:23;;;;;;;19.60;10.80;;;;;;;9.05;99.53;98107.23;104884;1284;25475;-74
2022/10/03 03:47:09;;;;;;;19.70;9.50;;;;;;;9.05;99.52;98104.69;104716;1284;138439;-73
2022/10/03 03:49:57;;;;;;;13.20;9.50;;;;;;;9.06;99.39;98104.20;104827;1284;30260;-73
2022/10/03 03:52:45;;;;;;;14.80;9.60;;;;;;;9.08;99.43;98099.02;104822;1284;138540;-74
2022/10/03 03:55:47;;;;;;;14.70;9.20;;;;;;;9.09;99.37;98101.21;104889;1284;24447;-74
2022/10/03 03:58:44;;;;;;;13.70;9.20;;;;;;;9.09;99.55;98099.59;105495;1277;139130;-74
2022/10/03 04:01:23;;;;;;;12.10;8.70;;;;;;;9.10;99.44;98097.75;105764;1278;25301;-73
2022/10/03 04:04:33;;;;;;;13.10;8.40;;;;;;;9.11;99.35;98094.68;105866;1277;22549;-73
2022/10/03 04:07:25;;;;;;;13.20;8.30;;;;;;;9.11;99.34;98098.77;105701;1274;25267;-74
2022/10/03 04:10:25;;;;;;;11.30;8.30;;;;;;;9.12;99.34;98099.27;105890;1277;22619;-74
2022/10/03 04:12:54;;;;;;;12.20;9.40;;;;;;;9.13;99.07;98100.42;105797;1277;24302;-73
2022/10/03 04:15:43;;;;;;;12.30;8.00;;;;;;;9.14;98.92;98095.98;105867;1277;24237;-73
2022/10/03 04:21:29;;;;;;;10.90;7.50;;;;;;;9.16;98.67;98094.87;105903;1274;24230;-74
2022/10/03 04:24:05;;;;;;;10.60;6.50;;;;;;;9.16;98.47;98091.89;105729;1277;138197;-73
2022/10/03 04:26:47;;;;;;;8.90;5.70;;;;;;;9.17;98.40;98089.45;105888;1274;22559;-73
2022/10/03 04:29:46;;;;;;;8.30;6.30;;;;;;;9.17;98.09;98091.33;105812;1274;138233;-73
2022/10/03 04:32:14;;;;;;;6.60;4.70;;;;;;;9.18;97.46;98085.41;105913;1275;25251;-74
2022/10/03 04:35:05;;;;;;;10.60;5.10;;;;;;;9.19;97.27;98077.00;105761;1274;138572;-73
2022/10/03 04:37:43;;;;;;;5.20;3.60;;;;;;;9.21;96.82;98078.06;105863;1275;24471;-73
2022/10/03 04:40:24;;;;;;;8.80;4.20;;;;;;;9.21;96.46;98075.79;105787;1277;139476;-73
2022/10/03 04:43:23;;;;;;;10.00;4.10;;;;;;;9.24;96.00;98080.66;105977;1277;26642;-73
2022/10/03 04:45:50;;;;;;;7.00;4.10;;;;;;;9.26;95.90;98077.27;105935;1277;24118;-72
2022/10/03 04:48:37;;;;;;;7.30;3.70;;;;;;;9.26;95.48;98081.19;105875;1277;138051;-73
2022/10/03 04:51:43;;;;;;;6.70;3.50;;;;;;;9.28;95.28;98079.44;105923;1277;30353;-73
2022/10/03 04:54:47;;;;;;;7.30;4.30;;;;;;;9.31;95.39;98085.34;105942;1274;138326;-73
2022/10/03 04:57:43;;;;;;;11.10;5.40;;;;;;;9.31;95.59;98081.16;106073;1275;25264;-73
2022/10/03 05:00:30;;;;;;;9.80;4.90;;;;;;;9.32;95.61;98083.36;105922;1274;138233;-73
2022/10/03 05:03:20;;;;;;;10.20;5.80;;;;;;;9.31;95.53;98082.70;106418;1275;25338;-73
2022/10/03 05:05:54;;;;;;;9.20;5.50;;;;;;;9.33;95.16;98086.27;105904;1275;138297;-73
2022/10/03 05:08:46;;;;;;;10.50;4.00;;;;;;;9.35;95.19;98082.91;106161;1276;24682;-73
2022/10/03 05:11:23;;;;;;;7.40;4.50;;;;;;;9.36;94.62;98078.80;105877;1274;137987;-73
2022/10/03 05:13:56;;;;;;;11.70;5.50;;;;;;;9.37;94.41;98088.34;105962;1274;22655;-73
2022/10/03 05:16:36;;;;;;;11.00;5.60;;;;;;;9.39;94.38;98090.38;105908;1274;138324;-73
2022/10/03 05:19:49;;;;;;;9.90;5.50;;;;;;;9.39;94.62;98090.05;106079;1274;25346;-72
2022/10/03 05:22:39;;;;;;;10.90;4.60;;;;;;;9.40;94.09;98083.23;105163;1284;138325;-73
2022/10/03 05:25:12;;;;;;;10.80;3.90;;;;;;;9.40;94.08;98077.73;105038;1284;22652;-73
2022/10/03 05:27:38;;;;;;;8.00;4.30;;;;;;;9.41;93.85;98079.20;104956;1284;25498;-73
2022/10/03 05:30:34;;;;;;;9.40;3.80;;;;;;;9.42;93.72;98074.22;105082;1284;138546;-73
2022/10/03 05:33:13;;;;;;;7.00;3.60;;;;;;;9.43;93.70;98076.90;105415;1283;31931;-72
2022/10/03 05:35:53;;;;;;;4.90;3.20;;;;;;;9.42;93.32;98091.09;105558;1281;138195;-73
2022/10/03 05:38:57;;;;;;;7.00;3.30;;;;;;;9.42;93.36;98087.88;105955;1282;22604;-73
2022/10/03 05:41:31;;;;;;;7.30;3.10;;;;;;;9.42;92.97;98085.74;105378;1281;137902;-73
2022/10/03 05:44:04;;;;;;;5.10;3.20;;;;;;;9.43;93.09;98087.62;105614;1283;22800;-73
2022/10/03 05:46:55;;;;;;;8.70;4.00;;;;;;;9.44;93.31;98090.89;105488;1283;138009;-72
2022/10/03 05:50:04;;;;;;;7.50;4.70;;;;;;;9.44;93.45;98092.42;105223;1283;22576;-73
2022/10/03 05:52:40;;;;;;;12.20;4.30;;;;;;;9.44;93.84;98093.35;105318;1283;138216;-73
2022/10/03 05:55:45;;;;;;;7.60;4.50;;;;;;;9.42;93.65;98097.77;105476;1283;24260;-72
2022/10/03 05:58:30;;;;;;;6.50;3.70;;;;;;;9.43;93.92;98094.30;105775;1278;138004;-72
2022/10/03 06:01:16;;;;;;;5.50;2.90;;;;;;;9.42;93.39;98100.54;106921;1277;22787;-72
2022/10/03 06:04:14;;;;;;;6.50;3.30;;;;;;;9.43;93.05;98112.98;106753;1274;29232;-72
2022/10/03 06:07:09;;;;;;;5.20;3.10;;;;;;;9.44;92.97;98118.52;106222;1274;22530;-72
2022/10/03 06:10:03;;;;;;;5.40;2.40;;;;;;;9.45;92.75;98122.51;106003;1277;22540;-71
2022/10/03 06:12:33;;;;;;;5.20;2.50;;;;;;;9.48;92.59;98126.83;106111;1274;29387;-72
2022/10/03 06:15:18;;;;;;;7.70;3.40;;;;;;;9.51;92.23;98127.86;106286;1274;24253;-72
2022/10/03 06:18:10;;;;;;;6.70;2.90;;;;;;;9.53;92.28;98130.08;106043;1274;138126;-72
2022/10/03 06:21:16;;;;;;;4.70;2.40;;;;;;;9.54;92.01;98126.23;106199;1274;25374;-72
2022/10/03 06:24:01;;;;;;;8.20;2.80;;;;;;;9.58;91.58;98121.68;105885;1274;138197;-72
2022/10/03 06:26:43;;;;;;;7.70;2.60;;;;;;;9.64;91.63;98120.54;105986;1274;23386;-72
2022/10/03 06:29:58;;;;;;;5.80;2.40;;;;;;;9.70;91.55;98127.64;105939;1274;138476;-72
2022/10/03 06:33:02;;;;;;;6.90;3.00;;;;;;;9.75;90.68;98124.23;105592;1281;22547;-72
2022/10/03 06:35:44;;;;;;;6.00;2.30;;;;;;;9.80;90.78;98127.14;105420;1280;138932;-73
2022/10/03 06:38:35;;;;;;;8.20;2.80;;;;;;;9.85;90.83;98131.02;105578;1280;22567;-71
2022/10/03 06:41:21;;;;;;;9.80;3.50;;;;;;;9.89;90.16;98130.66;105517;1280;137936;-73
2022/10/03 06:43:57;;;;;;;4.10;2.60;;;;;;;9.94;90.15;98136.11;105438;1281;22751;-72
2022/10/03 06:46:38;;;;;;;6.00;2.80;;;;;;;9.97;90.14;98137.99;105014;1281;138938;-72
2022/10/03 06:49:18;;;;;;;8.70;3.20;;;;;;;9.99;90.47;98136.36;105422;1281;22728;-71
2022/10/03 06:52:13;;;;;;;9.30;3.30;;;;;;;9.99;89.94;98138.48;105603;1281;22557;-71
2022/10/03 06:55:12;;;;;;;7.00;4.00;;;;;;;9.98;89.53;98138.55;105768;1280;25268;-72
2022/10/03 06:57:57;;;;;;;10.50;3.70;;;;;;;9.97;89.85;98143.93;105472;1280;26503;-71
2022/10/03 07:00:59;;;;;;;7.80;3.80;;;;;;;9.96;89.93;98136.09;105405;1280;138283;-72
2022/10/03 07:03:45;;;;;;;10.80;4.20;;;;;;;9.94;90.45;98135.73;104944;1287;24332;-72
2022/10/03 07:06:26;;;;;;;8.10;4.20;;;;;;;9.92;90.64;98128.63;104904;1283;138853;-72
2022/10/03 07:09:18;;;;;;;8.00;4.10;;;;;;;9.91;90.65;98127.57;105573;1283;22542;-72
2022/10/03 07:12:06;;;;;;;10.60;4.00;;;;;;;9.89;90.68;98127.11;105627;1281;138169;-71
2022/10/03 07:15:12;;;;;;;8.50;3.40;;;;;;;9.85;90.57;98129.02;105613;1281;25325;-72
2022/10/03 07:17:54;;;;;;;6.10;3.00;;;;;;;9.81;90.61;98132.04;104696;1287;141682;-72
2022/10/03 07:20:59;;;;;;;9.70;3.70;;;;;;;9.78;90.77;98127.72;104821;1287;22723;-72
2022/10/03 07:24:02;;;;;;;6.10;3.40;;;;;;;9.81;90.86;98129.91;103810;1295;138434;-71
2022/10/03 07:26:54;;;;;;;9.20;4.00;;;;;;;9.81;91.03;98134.45;103885;1295;25771;-72
2022/10/03 07:29:53;;;;;;;9.40;4.10;;;;;;;9.81;91.54;98139.78;103949;1294;138026;-74
2022/10/03 07:33:00;;;;;;;10.60;5.00;;;;;;;9.77;91.92;98139.39;103541;1300;23252;-74
2022/10/03 07:39:33;;;;;;;8.40;3.60;;;;;;;9.64;92.71;98145.63;102363;1312;544903;-76
2022/10/03 07:42:25;;;;;;;7.30;3.00;;;;;;;9.57;92.57;98154.45;104650;1286;137384;-75
2022/10/03 07:45:40;;;;;;;8.40;3.70;;;;;;;9.53;92.60;98155.19;104598;1290;23396;-76
2022/10/03 07:48:31;;;;;;;9.00;3.60;;;;;;;9.51;93.11;98156.25;103549;1298;137770;-75
2022/10/03 07:51:23;;;;;;;11.40;3.20;;;;;;;9.50;93.24;98155.09;103625;1297;22558;-75
2022/10/03 07:54:20;;;;;;;6.50;3.60;;;;;;;9.49;93.19;98159.24;103627;1293;216316;-76
2022/10/03 07:56:54;;;;;;;6.30;2.50;;;;;;;9.48;93.08;98165.16;104768;1286;25888;-76
2022/10/03 08:00:01;;;;;;;7.40;2.60;;;;;;;9.49;92.94;98161.54;104808;1286;137103;-76
2022/10/03 08:02:49;;;;;;;5.70;2.60;;;;;;;9.56;93.04;98162.86;104706;1288;30220;-76
2022/10/03 08:05:31;;;;;;;5.30;2.80;;;;;;;9.63;93.16;98161.89;104738;1287;137290;-77
2022/10/03 08:08:17;;;;;;;7.50;3.50;;;;;;;9.69;93.26;98160.09;104924;1286;22794;-75
2022/10/03 08:11:06;;;;;;;8.50;2.80;;;;;;;9.73;93.09;98160.58;104822;1286;137739;-75
2022/10/03 08:13:36;;;;;;;9.60;2.80;;;;;;;9.75;93.18;98161.75;104891;1287;22605;-74
2022/10/03 08:16:33;;;;;;;6.00;3.30;;;;;;;9.76;93.06;98157.15;104951;1286;22638;-76
2022/10/03 08:19:03;;;;;;;7.30;3.30;;;;;;;9.78;93.05;98158.32;105115;1286;22575;-76
2022/10/03 08:21:48;;;;;;;7.10;3.30;;;;;;;9.81;93.16;98158.70;105118;1286;22772;-76
2022/10/03 08:24:34;;;;;;;8.80;4.80;;;;;;;9.86;93.45;98157.98;104839;1280;137617;-76
2022/10/03 08:27:26;;;;;;;6.30;3.30;;;;;;;9.91;93.79;98156.24;105443;1280;22573;-75
2022/10/03 08:30:22;;;;;;;5.60;3.10;;;;;;;9.90;93.77;98163.23;105528;1280;137655;-76
2022/10/03 08:33:10;;;;;;;4.70;3.10;;;;;;;9.86;93.63;98170.69;105508;1277;22680;-76
2022/10/03 08:36:30;;;;;;;10.50;3.90;;;;;;;9.82;93.83;98162.31;105448;1277;137695;-76
2022/10/03 08:39:11;;;;;;;7.40;3.20;;;;;;;9.87;93.86;98166.36;104713;1287;22875;-75
2022/10/03 08:41:59;;;;;;;3.00;2.40;;;;;;;9.88;93.92;98161.80;104649;1287;137562;-76
2022/10/03 08:44:41;;;;;;;7.40;3.80;;;;;;;9.89;93.91;98158.07;104998;1287;22631;-76
2022/10/03 08:47:25;;;;;;;8.60;3.70;;;;;;;9.95;94.13;98163.92;104697;1287;137645;-75
2022/10/03 08:50:16;;;;;;;6.40;3.00;;;;;;;9.99;94.25;98166.11;104725;1287;22553;-75
2022/10/03 08:53:04;;;;;;;5.30;3.10;;;;;;;10.01;94.05;98170.98;104679;1287;137932;-77
2022/10/03 08:55:54;;;;;;;4.30;3.00;;;;;;;10.07;94.18;98169.66;104823;1286;24320;-76
2022/10/03 08:58:45;;;;;;;7.50;3.40;;;;;;;10.14;94.16;98170.84;104719;1286;140366;-74
2022/10/03 09:01:34;;;;;;;4.70;2.80;;;;;;;10.17;94.09;98174.92;105043;1286;22682;-74
2022/10/03 09:04:41;;;;;;;6.00;4.00;;;;;;;10.22;93.60;98168.11;105310;1287;30515;-74
2022/10/03 09:07:16;;;;;;;5.20;2.60;;;;;;;10.34;93.30;98167.36;104916;1287;24352;-74
2022/10/03 09:10:08;;;;;;;5.30;2.50;;;;;;;10.43;92.56;98158.84;104989;1280;23394;-74
2022/10/03 09:13:04;;;;;;;3.60;2.30;;;;;;;10.54;91.87;98159.08;105492;1280;24317;-74
2022/10/03 09:16:09;;;;;;;4.70;2.30;;;;;;;10.65;92.05;98164.17;105470;1280;24328;-75
2022/10/03 09:19:06;;;;;;;4.20;2.10;;;;;;;10.75;91.52;98162.08;105437;1281;23358;-74
2022/10/03 09:21:52;;;;;;;3.80;2.00;;;;;;;10.81;90.44;98162.90;105708;1280;23250;-73
2022/10/03 09:24:22;;;;;;;5.10;2.00;;;;;;;10.81;90.10;98165.86;105576;1280;138955;-74
2022/10/03 09:27:16;;;;;;;2.70;2.10;;;;;;;10.76;89.49;98170.58;105548;1280;22611;-74
2022/10/03 09:29:49;;;;;;;6.90;2.10;;;;;;;10.67;90.48;98171.56;105513;1280;137541;-75
2022/10/03 09:32:43;;;;;;;4.50;2.40;;;;;;;10.64;90.36;98173.33;105568;1280;24245;-74
2022/10/03 09:35:43;;;;;;;5.20;2.50;;;;;;;10.60;90.54;98176.20;105437;1280;138099;-75
2022/10/03 09:38:47;;;;;;;4.30;2.60;;;;;;;10.61;90.88;98172.35;105702;1281;22557;-74
2022/10/03 09:41:57;;;;;;;5.20;2.10;;;;;;;10.63;91.31;98181.15;105372;1281;137588;-74
2022/10/03 09:45:08;;;;;;;7.20;2.50;;;;;;;10.57;91.12;98180.14;105461;1280;25274;-74
2022/10/03 09:47:45;;;;;;;7.10;2.40;;;;;;;10.54;91.28;98176.03;104939;1286;138405;-74
2022/10/03 09:50:27;;;;;;;4.40;1.90;;;;;;;10.53;90.66;98180.30;104669;1286;25680;-74
2022/10/03 09:53:18;;;;;;;5.30;2.20;;;;;;;10.50;90.46;98176.95;104763;1286;137970;-74
2022/10/03 09:56:15;;;;;;;2.70;1.70;;;;;;;10.45;89.44;98173.13;105368;1283;29169;-74
2022/10/03 09:59:04;;;;;;;3.60;1.50;;;;;;;10.40;89.41;98176.82;104829;1284;137764;-73
2022/10/03 10:02:08;;;;;;;4.40;2.30;;;;;;;10.37;89.87;98179.23;105052;1285;24247;-73
2022/10/03 10:05:00;;;;;;;3.10;1.90;;;;;;;10.33;89.65;98175.45;104811;1286;138102;-73
2022/10/03 10:07:36;;;;;;;3.40;1.60;;;;;;;10.28;90.05;98176.45;104997;1286;23219;-73
2022/10/03 10:10:21;;;;;;;3.10;1.70;;;;;;;10.25;88.76;98178.58;104949;1286;22398;-74
2022/10/03 10:13:22;;;;;;;3.40;1.50;;;;;;;10.21;89.49;98186.31;104931;1286;26638;-74
2022/10/03 10:16:26;;;;;;;2.80;1.60;;;;;;;10.16;89.34;98179.02;104912;1285;22572;-75
2022/10/03 10:19:32;;;;;;;3.20;1.90;;;;;;;10.10;89.62;98179.10;104969;1286;22855;-75
2022/10/03 10:22:01;;;;;;;3.70;1.60;;;;;;;10.06;89.87;98179.93;104921;1286;22753;-74
2022/10/03 10:24:48;;;;;;;3.40;1.60;;;;;;;10.06;89.66;98181.23;105018;1280;137748;-73
2022/10/03 10:27:43;;;;;;;4.10;1.90;;;;;;;10.08;89.88;98187.30;104944;1285;25475;-73
2022/10/03 10:30:31;;;;;;;3.10;1.40;;;;;;;10.11;89.86;98184.84;104949;1286;139660;-73
2022/10/03 10:33:32;;;;;;;2.60;1.70;;;;;;;10.15;89.64;98187.63;104983;1286;24256;-74
2022/10/03 10:36:36;;;;;;;3.60;1.80;;;;;;;10.18;89.40;98179.73;105043;1286;137978;-73
2022/10/03 10:39:21;;;;;;;3.90;1.80;;;;;;;10.21;89.80;98180.38;105169;1284;22529;-73
2022/10/03 10:42:26;;;;;;;1.80;1.30;;;;;;;10.21;89.78;98187.18;104939;1286;138000;-74
2022/10/03 10:45:17;;;;;;;6.80;1.60;;;;;;;10.23;89.34;98190.40;105074;1285;25590;-73
2022/10/03 10:47:53;;;;;;;2.40;1.60;;;;;;;10.25;89.43;98186.75;105127;1286;138011;-74
2022/10/03 10:50:54;;;;;;;3.90;2.00;;;;;;;10.27;89.39;98186.61;105128;1284;22798;-73
2022/10/03 10:54:09;;;;;;;2.30;1.70;;;;;;;10.28;89.35;98188.64;105071;1286;137852;-74
2022/10/03 10:57:14;;;;;;;1.70;1.60;;;;;;;10.26;89.24;98186.55;105093;1286;25333;-73
2022/10/03 10:59:59;;;;;;;4.40;2.20;;;;;;;10.25;89.73;98182.59;104905;1286;138014;-73
2022/10/03 11:02:38;;;;;;;2.70;1.60;;;;;;;10.26;90.37;98180.02;105407;1286;22617;-73
2022/10/03 11:05:05;;;;;;;2.30;1.80;;;;;;;10.26;90.13;98187.41;105263;1280;137693;-73
2022/10/03 11:08:08;;;;;;;6.20;1.90;;;;;;;10.26;90.40;98191.88;105593;1280;22535;-73
2022/10/03 11:11:14;;;;;;;3.90;1.40;;;;;;;10.23;90.73;98192.44;105493;1280;137787;-74
2022/10/03 11:13:57;;;;;;;4.00;2.10;;;;;;;10.23;90.47;98193.79;105624;1280;25581;-74
2022/10/03 11:16:58;;;;;;;3.80;1.50;;;;;;;10.22;90.52;98198.02;105544;1280;137977;-74
2022/10/03 11:20:17;;;;;;;2.30;1.50;;;;;;;10.20;90.75;98203.75;105660;1280;22545;-73
2022/10/03 11:23:06;;;;;;;5.00;1.70;;;;;;;10.19;91.23;98202.39;105586;1280;138025;-74
2022/10/03 11:25:49;;;;;;;2.30;1.70;;;;;;;10.20;91.49;98198.53;105553;1279;22672;-73
2022/10/03 11:28:35;;;;;;;3.00;1.60;;;;;;;10.18;91.76;98205.63;105338;1280;139937;-74
2022/10/03 11:31:49;;;;;;;3.30;1.40;;;;;;;10.17;92.17;98210.51;105884;1280;22765;-73
2022/10/03 11:34:48;;;;;;;1.60;1.00;;;;;;;10.14;91.63;98211.07;105381;1280;139574;-74
2022/10/03 11:37:27;;;;;;;1.60;1.40;;;;;;;10.11;91.74;98206.63;105598;1280;22762;-74
2022/10/03 11:40:12;;;;;;;;;;;;;;;10.12;91.67;98206.19;105626;1280;25256;-73
2022/10/03 11:42:39;;;;;;;2.60;1.40;;;;;;;10.09;92.13;98204.79;105734;1280;23691;-74
2022/10/03 11:45:24;;;;;;;2.30;1.30;;;;;;;10.06;92.61;98208.55;105748;1280;22652;-74
2022/10/03 11:48:08;;;;;;;1.80;1.40;;;;;;;10.03;92.00;98214.02;106013;1278;138058;-73
2022/10/03 11:50:52;;;;;;;3.80;1.60;;;;;;;10.02;92.33;98215.67;105619;1280;24404;-76
2022/10/03 11:53:27;;;;;;;3.70;1.40;;;;;;;10.01;92.21;98213.09;105499;1280;137916;-76
2022/10/03 11:55:53;;;;;;;3.60;1.60;;;;;;;10.01;92.00;98214.84;105784;1280;22708;-76
2022/10/03 11:58:43;;;;;;;3.90;2.00;;;;;;;10.04;91.09;98219.02;105445;1280;137928;-76
2022/10/03 12:01:44;;;;;;;2.60;1.60;;;;;;;10.09;91.57;98219.09;105513;1280;22570;-76
2022/10/03 12:05:00;;;;;;;3.60;1.80;;;;;;;10.12;91.63;98220.61;106318;1277;22720;-75
2022/10/03 12:10:59;;;;;;;4.70;1.40;;;;;;;10.20;90.94;98221.66;105360;1284;138166;-75
2022/10/03 12:13:48;;;;;;;5.80;3.20;;;;;;;10.28;90.11;98231.52;105064;1289;24365;-74
2022/10/03 12:16:28;;;;;;;3.40;1.50;;;;;;;10.33;90.26;98233.38;105321;1289;138307;-77
2022/10/03 12:19:07;;;;;;;3.60;1.80;;;;;;;10.41;89.92;98238.67;104725;1289;29622;-75
2022/10/03 12:21:56;;;;;;;2.40;1.60;;;;;;;10.50;89.60;98236.55;104764;1289;22551;-75
2022/10/03 12:24:27;;;;;;;2.40;1.80;;;;;;;10.61;89.45;98240.88;104446;1289;139165;-75
2022/10/03 12:27:02;;;;;;;3.50;1.70;;;;;;;10.70;89.00;98240.61;104884;1289;22607;-75
2022/10/03 12:29:34;;;;;;;2.80;1.70;;;;;;;10.80;88.23;98243.41;104578;1289;139705;-75
2022/10/03 12:32:13;;;;;;;3.70;1.80;;;;;;;10.86;87.55;98243.88;104744;1289;22803;-75
2022/10/03 12:34:49;;;;;;;3.70;1.90;;;;;;;10.93;86.74;98244.20;104786;1289;138088;-75
2022/10/03 12:37:24;;;;;;;5.40;1.80;;;;;;;11.01;87.58;98245.92;105004;1289;22555;-74
2022/10/03 12:39:59;;;;;;;2.70;1.50;;;;;;;11.07;87.18;98243.22;104816;1289;24008;-76
2022/10/03 12:42:44;;;;;;;2.50;1.60;;;;;;;11.10;85.85;98248.88;105395;1284;138025;-74
2022/10/03 12:45:35;;;;;;;1.80;1.60;;;;;;;11.08;85.65;98243.18;105394;1284;22589;-73
2022/10/03 12:48:12;;;;;;;2.40;1.10;;;;;;;11.07;84.72;98242.52;105374;1283;138320;-74
2022/10/03 12:50:53;;;;;;;3.30;2.10;;;;;;;11.06;84.14;98241.14;105927;1277;22663;-74
2022/10/03 12:53:43;;;;;;;3.90;1.60;;;;;;;11.07;84.42;98241.36;105826;1277;137966;-73
2022/10/03 12:56:21;;;;;;;1.60;1.40;;;;;;;11.10;84.56;98247.08;106043;1277;23359;-73
2022/10/03 12:58:54;;;;;;;4.80;1.60;;;;;;;11.10;83.93;98246.59;106171;1277;138762;-73
2022/10/03 13:01:30;;;;;;;3.00;1.40;;;;;;;11.10;84.71;98249.14;105789;1279;25426;-73
2022/10/03 13:04:10;;;;;;;2.10;1.50;;;;;;;11.10;84.94;98252.59;105634;1280;22639;-74
2022/10/03 13:06:56;;;;;;;1.60;1.30;;;;;;;11.10;85.19;98252.47;105640;1277;138152;-72
2022/10/03 13:09:23;;;;;;;4.10;1.70;;;;;;;11.09;84.05;98250.33;105823;1278;22735;-73
2022/10/03 13:12:06;;;;;;;2.20;1.50;;;;;;;11.08;84.36;98253.48;106003;1279;138212;-73
2022/10/03 13:15:05;;;;;;;4.40;1.90;;;;;;;11.12;84.12;98258.64;105689;1279;25417;-73
2022/10/03 13:17:54;;;;;;;5.10;2.20;;;;;;;11.23;84.59;98241.55;105894;1279;139383;-73